Time;durP1;ratioP1;P1;durP2;ratioP2;P2;SDS_P1;SDS_P2;PMS_P1;PMS_P2;Temp;Humidity;BMP_temperature;BMP_pressure;BME280_temperature;BME280_humidity;BME280_pressure;Samples;Min_cycle;Max_cycle;Signal;HPM_P1;HPM_P2
2023/01/20 00:02:09;;;;;;;113.80;34.37;;;;;;;-0.17;100.00;99161.13;4961640;23;21941;-67
2023/01/20 00:04:36;;;;;;;108.37;34.13;;;;;;;-0.09;100.00;99166.66;4933557;23;20216;-66
2023/01/20 00:07:03;;;;;;;116.13;33.90;;;;;;;-0.12;100.00;99174.72;4978012;23;20208;-66
2023/01/20 00:09:29;;;;;;;120.93;35.70;;;;;;;-0.27;100.00;99174.03;4906531;23;20820;-68
2023/01/20 00:11:56;;;;;;;128.57;38.13;;;;;;;-0.34;100.00;99178.00;4950085;23;20222;-65
2023/01/20 00:14:24;;;;;;;112.07;34.13;;;;;;;-0.10;100.00;99185.06;4989394;23;20377;-67
2023/01/20 00:16:51;;;;;;;109.27;33.97;;;;;;;-0.16;100.00;99175.91;4964449;23;20946;-66
2023/01/20 00:19:17;;;;;;;114.47;34.97;;;;;;;-0.17;100.00;99189.06;4921476;23;20205;-65
2023/01/20 00:21:44;;;;;;;107.30;32.83;;;;;;;-0.11;100.00;99194.69;4947803;23;22768;-68
2023/01/20 00:24:10;;;;;;;105.30;32.60;;;;;;;-0.10;100.00;99198.97;4964232;23;20219;-66
2023/01/20 00:26:37;;;;;;;116.20;35.10;;;;;;;-0.27;100.00;99188.88;4955582;23;20207;-64
2023/01/20 00:29:04;;;;;;;109.50;31.97;;;;;;;-0.23;100.00;99199.00;4947347;23;21053;-67
2023/01/20 00:31:31;;;;;;;108.63;32.73;;;;;;;-0.29;100.00;99194.19;4958877;23;20219;-64
2023/01/20 00:33:59;;;;;;;104.23;31.63;;;;;;;-0.36;100.00;99208.63;4956230;23;21206;-64
2023/01/20 00:36:27;;;;;;;105.60;33.10;;;;;;;-0.31;100.00;99205.69;4934466;23;22034;-64
2023/01/20 00:38:54;;;;;;;107.40;31.90;;;;;;;-0.29;100.00;99216.91;4957245;23;20223;-66
2023/01/20 00:41:20;;;;;;;108.67;31.27;;;;;;;-0.26;100.00;99216.66;4958441;23;20207;-67
2023/01/20 00:43:47;;;;;;;113.23;34.30;;;;;;;-0.37;100.00;99224.44;4896500;23;20747;-65
2023/01/20 00:46:14;;;;;;;108.00;30.73;;;;;;;-0.37;100.00;99220.03;4951425;23;20854;-66
2023/01/20 00:48:41;;;;;;;102.70;31.37;;;;;;;-0.32;100.00;99227.56;4944051;23;20209;-66
2023/01/20 00:51:09;;;;;;;105.97;30.73;;;;;;;-0.30;100.00;99230.91;4936411;23;20215;-66
2023/01/20 00:53:35;;;;;;;116.87;31.57;;;;;;;-0.40;100.00;99230.69;4966130;23;20302;-66
2023/01/20 00:56:02;;;;;;;113.97;32.87;;;;;;;-0.40;100.00;99235.91;4935066;23;20968;-65
2023/01/20 00:58:29;;;;;;;118.10;33.83;;;;;;;-0.34;100.00;99239.91;4952481;23;21429;-65
2023/01/20 01:00:57;;;;;;;114.30;31.37;;;;;;;-0.32;100.00;99238.03;4924146;23;20280;-66
2023/01/20 01:03:26;;;;;;;117.80;33.87;;;;;;;-0.39;100.00;99236.78;4956403;23;20238;-67
2023/01/20 01:05:53;;;;;;;111.60;31.27;;;;;;;-0.33;100.00;99242.44;4956606;23;20954;-65
2023/01/20 01:08:20;;;;;;;90.60;28.80;;;;;;;-0.17;100.00;99247.41;4949985;23;20334;-65
2023/01/20 01:10:47;;;;;;;100.27;29.30;;;;;;;-0.12;100.00;99240.06;4947614;23;22596;-67
2023/01/20 01:13:13;;;;;;;106.13;30.90;;;;;;;-0.26;100.00;99245.44;4981903;23;20224;-67
2023/01/20 01:15:47;;;;;;;102.73;30.80;;;;;;;-0.30;100.00;99236.97;4984957;23;21163;-65
2023/01/20 01:18:13;;;;;;;103.47;29.90;;;;;;;-0.43;100.00;99242.19;4995400;23;21614;-65
2023/01/20 01:20:40;;;;;;;103.17;29.70;;;;;;;-0.44;100.00;99244.94;5018828;23;20611;-64
2023/01/20 01:23:06;;;;;;;108.47;29.37;;;;;;;-0.43;100.00;99252.66;4985680;23;20371;-66
2023/01/20 01:25:33;;;;;;;109.07;31.30;;;;;;;-0.30;100.00;99250.03;5019848;23;20220;-65
2023/01/20 01:28:00;;;;;;;101.03;28.63;;;;;;;-0.34;100.00;99256.41;4994005;23;20206;-65
2023/01/20 01:30:26;;;;;;;95.73;28.20;;;;;;;-0.30;100.00;99263.13;4957983;23;21682;-63
2023/01/20 01:32:53;;;;;;;101.10;28.63;;;;;;;-0.22;100.00;99266.03;4990068;23;20670;-66
2023/01/20 01:35:20;;;;;;;93.10;30.13;;;;;;;-0.23;100.00;99263.53;5009252;23;20205;-66
2023/01/20 01:37:46;;;;;;;105.93;32.13;;;;;;;-0.19;100.00;99264.97;5013173;23;22020;-66
2023/01/20 01:40:13;;;;;;;112.00;33.03;;;;;;;-0.14;100.00;99262.03;4986004;23;20776;-63
2023/01/20 01:42:40;;;;;;;97.60;29.00;;;;;;;-0.28;100.00;99265.59;4988551;23;20213;-67
2023/01/20 01:45:11;;;;;;;90.87;28.67;;;;;;;-0.24;100.00;99267.06;5007934;23;27300;-65
2023/01/20 01:48:01;;;;;;;99.57;29.63;;;;;;;-0.09;100.00;99275.66;4984027;23;20294;-65
2023/01/20 01:50:38;;;;;;;104.77;30.80;;;;;;;-0.15;100.00;99276.91;4972773;23;20205;-66
2023/01/20 01:53:05;;;;;;;105.50;29.80;;;;;;;-0.25;100.00;99273.25;4994482;23;20216;-64
2023/01/20 01:55:34;;;;;;;108.10;29.37;;;;;;;-0.43;100.00;99262.25;5005093;23;20324;-63
2023/01/20 01:58:01;;;;;;;98.53;28.00;;;;;;;-0.49;100.00;99263.53;4989705;23;21088;-65
2023/01/20 02:00:28;;;;;;;102.10;28.80;;;;;;;-0.52;100.00;99266.34;4989642;23;20206;-65
2023/01/20 02:02:55;;;;;;;110.63;29.17;;;;;;;-0.50;100.00;99261.00;5003607;23;20219;-64
2023/01/20 02:05:24;;;;;;;119.07;30.47;;;;;;;-0.48;100.00;99259.97;4982951;23;20210;-65
2023/01/20 02:07:51;;;;;;;110.13;29.67;;;;;;;-0.34;100.00;99260.81;4966894;23;20267;-65
2023/01/20 02:10:17;;;;;;;107.00;28.83;;;;;;;-0.39;100.00;99258.50;4993776;23;20218;-63
2023/01/20 02:12:48;;;;;;;108.10;28.63;;;;;;;-0.50;100.00;99261.00;5005613;23;26252;-65
2023/01/20 02:15:16;;;;;;;115.03;29.43;;;;;;;-0.54;100.00;99256.94;5003657;23;20206;-67
2023/01/20 02:17:48;;;;;;;111.87;30.80;;;;;;;-0.55;100.00;99257.88;5010093;23;21775;-66
2023/01/20 02:20:27;;;;;;;115.03;30.30;;;;;;;-0.56;100.00;99264.88;4984698;23;21623;-66
2023/01/20 02:22:58;;;;;;;106.33;30.27;;;;;;;-0.34;100.00;99277.31;4993077;23;20205;-65
2023/01/20 02:25:45;;;;;;;115.67;30.03;;;;;;;-0.50;100.00;99272.28;5002462;23;25411;-65
2023/01/20 02:28:14;;;;;;;108.10;29.90;;;;;;;-0.48;100.00;99272.19;5007031;23;20352;-66
2023/01/20 02:31:07;;;;;;;101.30;27.67;;;;;;;-0.35;100.00;99277.41;5020181;23;20666;-64
2023/01/20 02:33:40;;;;;;;122.27;31.27;;;;;;;-0.37;100.00;99274.94;5013434;23;22795;-64
2023/01/20 02:36:19;;;;;;;121.90;29.70;;;;;;;-0.35;100.00;99274.81;4991911;23;20210;-65
2023/01/20 02:38:54;;;;;;;129.13;31.60;;;;;;;-0.35;100.00;99280.03;4941202;23;20211;-66
2023/01/20 02:41:34;;;;;;;114.20;29.73;;;;;;;-0.33;100.00;99279.03;4988153;23;20256;-64
2023/01/20 02:44:14;;;;;;;127.77;31.10;;;;;;;-0.33;100.00;99279.03;4986276;23;25728;-66
2023/01/20 02:47:10;;;;;;;115.87;30.73;;;;;;;-0.29;100.00;99279.63;5013720;23;20209;-66
2023/01/20 02:50:06;;;;;;;118.50;30.63;;;;;;;-0.25;100.00;99281.09;4994661;23;22780;-66
2023/01/20 02:52:43;;;;;;;141.20;32.17;;;;;;;-0.37;100.00;99280.16;4983781;23;20273;-66
2023/01/20 02:55:14;;;;;;;138.63;31.47;;;;;;;-0.43;100.00;99272.72;4974243;23;20526;-64
2023/01/20 02:57:44;;;;;;;123.67;30.77;;;;;;;-0.40;100.00;99269.06;4970439;23;20213;-64
2023/01/20 03:00:24;;;;;;;147.00;33.63;;;;;;;-0.35;100.00;99272.19;4969783;23;23022;-65
2023/01/20 03:02:52;;;;;;;125.73;32.33;;;;;;;-0.37;100.00;99274.94;5004472;23;21989;-64
2023/01/20 03:05:40;;;;;;;139.93;33.70;;;;;;;-0.42;100.00;99274.41;5028044;23;20362;-65
2023/01/20 03:08:08;;;;;;;132.23;32.13;;;;;;;-0.48;100.00;99273.03;5001992;23;21931;-63
2023/01/20 03:10:36;;;;;;;142.70;32.70;;;;;;;-0.36;100.00;99273.16;4983673;23;21078;-65
2023/01/20 03:13:35;;;;;;;146.70;33.70;;;;;;;-0.47;100.00;99272.09;4982476;23;20631;-65
2023/01/20 03:16:08;;;;;;;162.23;32.53;;;;;;;-0.50;100.00;99274.06;4974700;23;20603;-66
2023/01/20 03:18:35;;;;;;;137.17;31.07;;;;;;;-0.51;100.00;99291.53;4965653;23;20217;-64
2023/01/20 03:21:04;;;;;;;137.60;33.17;;;;;;;-0.34;100.00;99284.34;4973817;23;20203;-65
2023/01/20 03:23:33;;;;;;;157.40;32.03;;;;;;;-0.39;100.00;99282.03;4964290;23;20211;-66
2023/01/20 03:26:12;;;;;;;171.57;34.33;;;;;;;-0.36;100.00;99286.22;4961264;23;20814;-65
2023/01/20 03:28:43;;;;;;;159.23;33.33;;;;;;;-0.46;100.00;99289.44;4974702;23;21188;-65
2023/01/20 03:31:29;;;;;;;148.50;31.70;;;;;;;-0.49;100.00;99286.22;4962934;23;20679;-65
2023/01/20 03:33:57;;;;;;;124.80;30.73;;;;;;;-0.32;100.00;99296.34;4960184;23;20214;-63
2023/01/20 03:36:26;;;;;;;163.73;34.13;;;;;;;-0.39;100.00;99296.88;4953439;23;21403;-66
2023/01/20 03:38:53;;;;;;;140.30;32.93;;;;;;;-0.26;100.00;99305.56;4956041;23;20207;-66
2023/01/20 03:41:38;;;;;;;123.97;31.70;;;;;;;-0.16;100.00;99305.78;4956833;23;22306;-66
2023/01/20 03:44:11;;;;;;;170.10;34.97;;;;;;;-0.33;100.00;99304.28;4976439;23;20268;-64
2023/01/20 03:46:45;;;;;;;168.30;34.90;;;;;;;-0.46;100.00;99306.91;4950334;23;21750;-64
2023/01/20 03:49:23;;;;;;;158.90;35.60;;;;;;;-0.48;100.00;99314.84;4968477;23;20836;-67
2023/01/20 03:51:54;;;;;;;168.90;36.17;;;;;;;-0.38;100.00;99322.06;4938141;23;20271;-65
2023/01/20 03:54:27;;;;;;;190.50;35.77;;;;;;;-0.34;100.00;99332.22;4947688;23;20280;-64
2023/01/20 03:57:05;;;;;;;171.33;36.50;;;;;;;-0.32;100.00;99337.34;4923749;23;20213;-66
2023/01/20 03:59:34;;;;;;;139.07;33.20;;;;;;;-0.23;100.00;99332.34;4971602;23;20210;-65
2023/01/20 04:02:03;;;;;;;191.80;37.23;;;;;;;-0.30;100.00;99348.53;4996959;23;20212;-66
2023/01/20 04:04:32;;;;;;;164.80;34.50;;;;;;;-0.26;100.00;99358.69;4948266;23;20262;-66
2023/01/20 04:06:59;;;;;;;153.90;34.27;;;;;;;-0.15;100.00;99357.94;4926911;23;20263;-64
2023/01/20 04:09:28;;;;;;;138.63;33.67;;;;;;;-0.18;100.00;99363.41;4948464;23;20203;-65
2023/01/20 04:11:55;;;;;;;146.30;34.93;;;;;;;-0.05;100.00;99368.63;4958028;23;20213;-65
2023/01/20 04:14:21;;;;;;;199.10;35.40;;;;;;;-0.29;100.00;99365.88;5020659;23;20622;-67
2023/01/20 04:16:56;;;;;;;157.67;36.77;;;;;;;-0.29;100.00;99374.56;5033768;23;22450;-65
2023/01/20 04:19:23;;;;;;;150.43;34.50;;;;;;;-0.26;100.00;99374.38;4994839;23;21081;-64
2023/01/20 04:22:06;;;;;;;171.87;34.83;;;;;;;-0.20;100.00;99372.28;4987111;23;20596;-66
2023/01/20 04:24:56;;;;;;;151.77;33.67;;;;;;;-0.31;100.00;99375.59;4990779;23;20589;-64
2023/01/20 04:27:22;;;;;;;169.10;32.97;;;;;;;-0.41;100.00;99377.16;4974740;23;20208;-66
2023/01/20 04:29:49;;;;;;;162.03;32.13;;;;;;;-0.46;100.00;99378.31;5006486;23;24987;-67
2023/01/20 04:32:15;;;;;;;164.00;33.73;;;;;;;-0.36;100.00;99381.13;4978296;23;20207;-64
2023/01/20 04:34:42;;;;;;;181.47;32.80;;;;;;;-0.41;100.00;99382.38;4979853;23;26303;-64
2023/01/20 04:37:08;;;;;;;151.77;31.93;;;;;;;-0.45;100.00;99379.13;4982616;23;21735;-65
2023/01/20 04:39:35;;;;;;;150.13;32.40;;;;;;;-0.42;100.00;99381.56;5011506;23;20209;-64
2023/01/20 04:42:02;;;;;;;167.43;34.27;;;;;;;-0.38;100.00;99395.25;4997354;23;21704;-65
2023/01/20 04:44:29;;;;;;;194.60;33.77;;;;;;;-0.37;100.00;99399.56;4985655;23;20214;-68
2023/01/20 04:46:57;;;;;;;168.07;33.53;;;;;;;-0.31;100.00;99406.97;4988580;23;20206;-68
2023/01/20 04:49:24;;;;;;;170.70;32.77;;;;;;;-0.32;100.00;99413.16;4992641;23;20268;-65
2023/01/20 04:51:50;;;;;;;206.10;36.40;;;;;;;-0.24;100.00;99416.91;4978004;23;20417;-64
2023/01/20 04:54:17;;;;;;;198.60;33.70;;;;;;;-0.24;100.00;99423.94;4995993;23;20228;-65
2023/01/20 04:56:44;;;;;;;199.53;36.10;;;;;;;-0.26;100.00;99436.25;5022539;23;20206;-66
2023/01/20 04:59:10;;;;;;;208.13;36.33;;;;;;;-0.23;100.00;99443.91;4992756;23;20202;-64
2023/01/20 05:01:37;;;;;;;203.73;35.33;;;;;;;-0.27;100.00;99448.50;4989411;23;20209;-64
2023/01/20 05:04:04;;;;;;;210.20;37.43;;;;;;;-0.22;100.00;99446.41;5030404;23;21568;-66
2023/01/20 05:06:30;;;;;;;209.10;40.37;;;;;;;-0.18;100.00;99441.84;4998514;23;20261;-65
2023/01/20 05:08:57;;;;;;;243.47;42.53;;;;;;;-0.24;100.00;99445.66;4983206;23;20432;-65
2023/01/20 05:11:24;;;;;;;257.83;43.90;;;;;;;-0.23;100.00;99441.31;4994634;23;20384;-65
2023/01/20 05:13:50;;;;;;;180.37;37.93;;;;;;;-0.20;100.00;99448.94;4999155;23;21505;-65
2023/01/20 05:16:23;;;;;;;229.97;39.40;;;;;;;-0.16;100.00;99453.03;4990583;23;20416;-64
2023/01/20 05:18:50;;;;;;;245.03;39.53;;;;;;;-0.22;100.00;99450.81;5010885;23;21729;-65
2023/01/20 05:21:17;;;;;;;215.03;38.97;;;;;;;-0.24;100.00;99450.06;4993344;23;20261;-65
2023/01/20 05:23:43;;;;;;;217.47;38.23;;;;;;;-0.29;100.00;99442.53;4988855;23;20583;-67
2023/01/20 05:26:10;;;;;;;180.43;36.83;;;;;;;-0.31;100.00;99449.63;4993937;23;23337;-66
2023/01/20 05:28:36;;;;;;;184.90;36.70;;;;;;;-0.15;100.00;99454.69;4991829;23;20862;-66
2023/01/20 05:31:03;;;;;;;221.93;41.57;;;;;;;-0.12;100.00;99470.16;5012957;23;20202;-65
2023/01/20 05:33:30;;;;;;;236.17;41.33;;;;;;;-0.06;100.00;99475.00;5003440;23;20698;-64
2023/01/20 05:35:56;;;;;;;203.93;42.23;;;;;;;-0.04;100.00;99477.53;4985818;23;20293;-65
2023/01/20 05:38:23;;;;;;;234.13;48.97;;;;;;;0.03;100.00;99475.34;5005795;23;20231;-66
2023/01/20 05:40:49;;;;;;;214.37;43.50;;;;;;;-0.01;100.00;99486.00;4984832;23;20206;-65
2023/01/20 05:43:16;;;;;;;246.03;42.30;;;;;;;-0.13;100.00;99478.13;4992941;23;20210;-66
2023/01/20 05:45:42;;;;;;;260.83;40.07;;;;;;;-0.20;100.00;99475.06;5002289;23;20265;-67
2023/01/20 05:48:09;;;;;;;297.83;44.00;;;;;;;-0.23;100.00;99477.91;4993073;23;20209;-64
2023/01/20 05:50:36;;;;;;;222.27;40.07;;;;;;;-0.22;100.00;99482.19;4988852;23;20206;-66
2023/01/20 05:53:02;;;;;;;235.43;42.10;;;;;;;-0.07;100.00;99494.25;4990938;23;20273;-67
2023/01/20 05:55:29;;;;;;;262.67;41.10;;;;;;;-0.10;100.00;99502.28;5002743;23;20656;-65
2023/01/20 05:57:55;;;;;;;208.63;38.60;;;;;;;0.06;100.00;99514.38;4990563;23;20221;-66
2023/01/20 06:00:22;;;;;;;235.60;40.73;;;;;;;0.06;100.00;99515.19;5004713;23;20217;-66
2023/01/20 06:02:49;;;;;;;198.03;37.47;;;;;;;0.12;100.00;99525.28;5031362;23;23330;-64
2023/01/20 06:05:16;;;;;;;205.83;39.20;;;;;;;0.17;100.00;99544.13;5002982;23;20278;-64
2023/01/20 06:07:43;;;;;;;201.27;38.10;;;;;;;0.18;100.00;99552.78;4995325;23;21852;-67
2023/01/20 06:10:10;;;;;;;275.20;41.90;;;;;;;0.18;100.00;99560.66;4995031;23;21129;-65
2023/01/20 06:12:37;;;;;;;259.13;40.30;;;;;;;0.24;100.00;99559.41;4989836;23;20224;-65
2023/01/20 06:15:04;;;;;;;262.67;40.10;;;;;;;0.20;100.00;99574.47;5015521;23;20214;-66
2023/01/20 06:17:30;;;;;;;213.87;38.50;;;;;;;0.23;100.00;99568.19;4989323;23;21843;-67
2023/01/20 06:19:57;;;;;;;266.67;40.80;;;;;;;0.18;100.00;99576.34;4994338;23;21523;-67
2023/01/20 06:22:24;;;;;;;245.47;39.17;;;;;;;0.03;100.00;99585.19;4958520;23;27003;-66
2023/01/20 06:24:51;;;;;;;176.83;34.73;;;;;;;0.10;100.00;99594.31;5015765;23;20292;-66
2023/01/20 06:27:18;;;;;;;252.30;41.00;;;;;;;0.09;100.00;99600.47;5001514;23;20212;-67
2023/01/20 06:29:45;;;;;;;245.10;39.67;;;;;;;0.08;100.00;99598.81;5018293;23;21536;-68
2023/01/20 06:32:11;;;;;;;256.43;38.47;;;;;;;0.01;100.00;99600.97;5018561;23;20543;-64
2023/01/20 06:34:38;;;;;;;235.13;40.13;;;;;;;-0.04;100.00;99597.81;4992611;23;20670;-67
2023/01/20 06:37:05;;;;;;;241.33;35.83;;;;;;;-0.04;100.00;99603.88;4998570;23;20206;-65
2023/01/20 06:39:32;;;;;;;259.93;38.67;;;;;;;-0.01;100.00;99606.28;5013249;23;20266;-68
2023/01/20 06:41:59;;;;;;;190.20;35.80;;;;;;;0.04;100.00;99603.38;5003371;23;20219;-66
2023/01/20 06:44:25;;;;;;;205.80;35.03;;;;;;;0.05;100.00;99601.59;5008962;23;20218;-67
2023/01/20 06:46:53;;;;;;;214.60;36.97;;;;;;;0.01;100.00;99606.22;4989500;23;20210;-66
2023/01/20 06:49:19;;;;;;;224.10;35.40;;;;;;;0.04;100.00;99610.41;4996305;23;21183;-69
2023/01/20 06:51:47;;;;;;;219.50;36.07;;;;;;;0.03;100.00;99613.97;5056454;23;20211;-65
2023/01/20 06:54:15;;;;;;;210.77;35.53;;;;;;;0.03;100.00;99614.81;4998084;23;21132;-65
2023/01/20 06:56:41;;;;;;;215.30;35.43;;;;;;;0.04;100.00;99620.88;5019044;23;20209;-63
2023/01/20 06:59:09;;;;;;;240.53;36.13;;;;;;;0.04;100.00;99632.16;5025725;23;20206;-62
2023/01/20 07:01:36;;;;;;;217.20;35.60;;;;;;;0.03;100.00;99633.13;4999472;23;21184;-67
2023/01/20 07:04:03;;;;;;;210.87;34.67;;;;;;;0.05;100.00;99627.75;5032551;23;21152;-64
2023/01/20 07:06:37;;;;;;;221.17;36.70;;;;;;;0.07;100.00;99623.28;5053428;23;20372;-69
2023/01/20 07:09:06;;;;;;;209.70;36.93;;;;;;;0.13;100.00;99631.56;5004373;23;20201;-66
2023/01/20 07:11:34;;;;;;;204.43;36.00;;;;;;;0.10;100.00;99638.78;5004315;23;20201;-67
2023/01/20 07:14:02;;;;;;;232.13;37.10;;;;;;;0.20;100.00;99652.94;4964387;23;20213;-67
2023/01/20 07:16:28;;;;;;;192.23;35.27;;;;;;;0.15;100.00;99645.41;4973397;23;21707;-65
2023/01/20 07:18:55;;;;;;;184.20;35.23;;;;;;;0.11;100.00;99650.91;4941842;23;20203;-68
2023/01/20 07:21:22;;;;;;;187.53;35.30;;;;;;;0.10;100.00;99662.34;4973558;23;20313;-65
2023/01/20 07:23:52;;;;;;;185.63;37.07;;;;;;;0.14;100.00;99658.56;4971506;23;20751;-66
2023/01/20 07:26:21;;;;;;;185.03;35.50;;;;;;;0.19;100.00;99664.38;4961947;23;21839;-68
2023/01/20 07:28:47;;;;;;;186.10;35.20;;;;;;;0.24;100.00;99654.44;4957910;23;20207;-66
2023/01/20 07:31:16;;;;;;;171.90;35.33;;;;;;;0.27;100.00;99656.03;4974160;23;20207;-70
2023/01/20 07:33:44;;;;;;;201.97;34.33;;;;;;;0.23;100.00;99654.53;5035419;23;21745;-66
2023/01/20 07:36:11;;;;;;;192.67;34.77;;;;;;;0.25;100.00;99660.50;5041681;23;21650;-68
2023/01/20 07:38:38;;;;;;;195.27;34.87;;;;;;;0.25;100.00;99660.50;5071945;23;20208;-66
2023/01/20 07:41:09;;;;;;;176.93;34.60;;;;;;;0.30;100.00;99656.66;5008840;23;21198;-67
2023/01/20 07:43:36;;;;;;;191.23;36.50;;;;;;;0.33;100.00;99658.25;5024518;23;21726;-67
2023/01/20 07:46:04;;;;;;;192.00;35.00;;;;;;;0.35;100.00;99657.22;5014717;23;20899;-68
2023/01/20 07:48:32;;;;;;;181.77;35.57;;;;;;;0.35;100.00;99662.44;4981576;23;20209;-67
2023/01/20 07:51:02;;;;;;;177.03;36.57;;;;;;;0.37;100.00;99664.94;5007902;23;20509;-66
2023/01/20 07:53:29;;;;;;;173.80;34.40;;;;;;;0.33;100.00;99659.09;4970790;23;20212;-66
2023/01/20 07:55:59;;;;;;;160.23;33.67;;;;;;;0.31;100.00;99663.56;5014981;23;20207;-67
2023/01/20 07:58:27;;;;;;;130.57;33.03;;;;;;;0.38;100.00;99659.63;5014876;23;20211;-67
2023/01/20 08:00:54;;;;;;;157.60;34.80;;;;;;;0.37;100.00;99675.41;5008409;23;21589;-68
2023/01/20 08:03:21;;;;;;;176.73;35.57;;;;;;;0.36;100.00;99669.34;4956490;23;20209;-66
2023/01/20 08:05:48;;;;;;;158.07;35.40;;;;;;;0.32;100.00;99672.25;4953514;23;20288;-65
2023/01/20 08:08:15;;;;;;;151.53;33.13;;;;;;;0.34;100.00;99681.69;4973615;23;21016;-67
2023/01/20 08:10:42;;;;;;;143.70;34.10;;;;;;;0.37;100.00;99678.03;4980328;23;20349;-67
2023/01/20 08:13:08;;;;;;;159.53;34.83;;;;;;;0.35;100.00;99677.28;4972115;23;21055;-66
2023/01/20 08:15:36;;;;;;;161.13;35.50;;;;;;;0.34;100.00;99676.44;4969862;23;21230;-64
2023/01/20 08:18:03;;;;;;;169.73;35.87;;;;;;;0.36;100.00;99687.66;4943111;23;20271;-67
2023/01/20 08:20:29;;;;;;;157.30;35.33;;;;;;;0.40;100.00;99676.06;4959274;23;20209;-66
2023/01/20 08:22:56;;;;;;;170.03;37.87;;;;;;;0.44;100.00;99679.31;4944707;23;20380;-64
2023/01/20 08:25:23;;;;;;;132.47;33.57;;;;;;;0.47;100.00;99676.50;4969284;23;20218;-68
2023/01/20 08:27:49;;;;;;;145.00;34.53;;;;;;;0.47;100.00;99678.28;4980815;23;20207;-70
2023/01/20 08:30:16;;;;;;;159.70;34.60;;;;;;;0.46;100.00;99684.47;4948740;23;21355;-69
2023/01/20 08:32:43;;;;;;;139.33;33.90;;;;;;;0.47;100.00;99681.75;4949847;23;20260;-67
2023/01/20 08:35:10;;;;;;;137.80;34.50;;;;;;;0.51;100.00;99685.00;4933284;23;21521;-68
2023/01/20 08:37:36;;;;;;;140.03;34.80;;;;;;;0.58;100.00;99678.41;4944082;23;20295;-66
2023/01/20 08:40:07;;;;;;;145.90;37.13;;;;;;;0.59;100.00;99683.56;4965895;23;23828;-67
2023/01/20 08:42:36;;;;;;;134.17;32.10;;;;;;;0.60;100.00;99679.16;4954095;23;20295;-65
2023/01/20 08:45:04;;;;;;;127.83;32.80;;;;;;;0.55;100.00;99686.47;4958208;23;21300;-66
2023/01/20 08:47:34;;;;;;;116.13;31.43;;;;;;;0.57;100.00;99684.59;4952163;23;20390;-68
2023/01/20 08:50:02;;;;;;;129.53;30.90;;;;;;;0.56;100.00;99690.75;4968656;23;20301;-67
2023/01/20 08:52:29;;;;;;;113.20;30.33;;;;;;;0.60;100.00;99702.72;4960314;23;21779;-68
2023/01/20 08:54:57;;;;;;;109.90;31.40;;;;;;;0.65;100.00;99705.03;4994026;23;20291;-68
2023/01/20 08:57:25;;;;;;;118.47;31.27;;;;;;;0.67;100.00;99704.00;4969742;23;21555;-66
2023/01/20 08:59:53;;;;;;;123.13;31.80;;;;;;;0.65;100.00;99705.03;4950038;23;20212;-71
2023/01/20 09:02:19;;;;;;;105.47;29.33;;;;;;;0.70;100.00;99703.78;4964577;23;20275;-69
2023/01/20 09:04:48;;;;;;;116.17;30.63;;;;;;;0.78;100.00;99703.31;4965493;23;20271;-66
2023/01/20 09:07:17;;;;;;;110.57;28.50;;;;;;;0.78;100.00;99695.44;4951880;23;20212;-68
2023/01/20 09:09:44;;;;;;;109.03;28.70;;;;;;;0.94;100.00;99693.50;4979694;23;20208;-70
2023/01/20 09:12:11;;;;;;;113.73;29.47;;;;;;;0.97;100.00;99700.31;4968015;23;21315;-69
2023/01/20 09:14:38;;;;;;;120.53;29.43;;;;;;;1.03;100.00;99697.25;4993685;23;20207;-65
2023/01/20 09:17:06;;;;;;;113.83;29.23;;;;;;;1.05;100.00;99700.63;4950367;23;21409;-68
2023/01/20 09:19:33;;;;;;;110.77;29.30;;;;;;;1.04;100.00;99702.41;4953417;23;20216;-69
2023/01/20 09:21:59;;;;;;;88.37;27.30;;;;;;;1.09;100.00;99709.97;4983343;23;20579;-69
2023/01/20 09:24:26;;;;;;;93.03;27.10;;;;;;;1.30;100.00;99712.09;4970199;23;20258;-68
2023/01/20 09:26:53;;;;;;;88.93;27.13;;;;;;;1.27;100.00;99713.13;4988198;23;20221;-69
2023/01/20 09:29:20;;;;;;;88.23;26.33;;;;;;;1.31;100.00;99714.63;4964774;23;20218;-66
2023/01/20 09:31:52;;;;;;;76.33;26.00;;;;;;;1.42;100.00;99719.94;4984965;23;20236;-70
2023/01/20 09:34:23;;;;;;;82.27;26.47;;;;;;;1.42;100.00;99721.75;5013664;23;20210;-67
2023/01/20 09:36:51;;;;;;;62.03;22.00;;;;;;;1.57;100.00;99723.31;5013628;23;21207;-74
2023/01/20 09:45:26;;;;;;;66.93;21.97;;;;;;;1.54;100.00;99747.13;4969952;23;20854;-71
2023/01/20 09:48:12;;;;;;;63.27;21.60;;;;;;;1.54;100.00;99752.34;4996670;23;20211;-72
2023/01/20 09:53:44;;;;;;;64.23;22.53;;;;;;;1.88;100.00;99753.50;4942168;23;20995;-72
2023/01/20 09:56:15;;;;;;;59.73;20.90;;;;;;;1.75;100.00;99755.28;5011907;23;22213;-75
2023/01/20 09:58:56;;;;;;;58.40;20.00;;;;;;;1.75;100.00;99755.28;4992993;23;20255;-73
2023/01/20 10:01:35;;;;;;;57.33;19.20;;;;;;;1.65;100.00;99755.09;4981104;23;20217;-71
2023/01/20 10:04:11;;;;;;;52.47;18.80;;;;;;;1.63;100.00;99751.72;4968650;23;20387;-72
2023/01/20 10:06:37;;;;;;;55.23;18.87;;;;;;;1.63;100.00;99761.38;4923720;23;20213;-75
2023/01/20 10:09:25;;;;;;;45.87;18.23;;;;;;;1.59;100.00;99757.28;4992339;23;20605;-74
2023/01/20 10:11:58;;;;;;;46.33;17.03;;;;;;;1.66;100.00;99759.41;4958241;23;24680;-74
2023/01/20 10:14:36;;;;;;;46.73;18.60;;;;;;;1.57;100.00;99746.06;4947572;23;20221;-73
2023/01/20 10:17:11;;;;;;;48.57;17.67;;;;;;;1.62;100.00;99750.06;4967897;23;20219;-71
2023/01/20 10:19:43;;;;;;;53.73;17.47;;;;;;;1.52;100.00;99751.63;4922598;23;20212;-72
2023/01/20 10:22:25;;;;;;;51.07;16.47;;;;;;;1.66;100.00;99759.41;4977491;23;20284;-74
2023/01/20 10:24:58;;;;;;;57.63;19.93;;;;;;;1.67;100.00;99747.97;4951745;23;20688;-73
2023/01/20 10:27:27;;;;;;;55.30;16.70;;;;;;;1.54;100.00;99757.59;4957941;23;23208;-75
2023/01/20 10:30:05;;;;;;;46.10;17.20;;;;;;;1.47;100.00;99756.34;4932721;23;21728;-76
2023/01/20 10:32:35;;;;;;;46.63;16.73;;;;;;;1.50;100.00;99756.16;4936800;23;20226;-74
2023/01/20 10:35:17;;;;;;;48.97;17.90;;;;;;;1.46;100.00;99759.91;4941747;23;20233;-73
2023/01/20 10:37:44;;;;;;;55.83;18.43;;;;;;;1.40;100.00;99761.16;4941807;23;20251;-73
2023/01/20 10:40:20;;;;;;;53.93;18.03;;;;;;;1.59;100.00;99765.16;4965503;23;21447;-72
2023/01/20 10:42:48;;;;;;;49.27;18.47;;;;;;;1.42;100.00;99769.75;4975300;23;20210;-70
2023/01/20 10:45:23;;;;;;;49.60;18.10;;;;;;;1.41;100.00;99762.84;4937642;23;20381;-70
2023/01/20 10:48:08;;;;;;;54.90;19.47;;;;;;;1.39;100.00;99769.13;4964083;23;20481;-72
2023/01/20 10:51:00;;;;;;;53.43;18.77;;;;;;;1.36;100.00;99770.19;4972287;23;20219;-72
2023/01/20 10:53:47;;;;;;;57.30;19.93;;;;;;;1.41;100.00;99777.75;4952448;23;20206;-72
2023/01/20 10:56:29;;;;;;;56.67;19.63;;;;;;;1.44;100.00;99782.78;4982460;23;20213;-70
2023/01/20 10:59:03;;;;;;;48.13;17.93;;;;;;;1.41;100.00;99785.59;4981231;23;20207;-71
2023/01/20 11:01:30;;;;;;;53.73;18.90;;;;;;;1.43;100.00;99781.94;4958264;23;20370;-72
2023/01/20 11:03:56;;;;;;;49.27;18.80;;;;;;;1.42;100.00;99776.78;4999012;23;21046;-73
2023/01/20 11:06:25;;;;;;;57.87;21.23;;;;;;;1.49;100.00;99780.69;4958945;23;20212;-71
2023/01/20 11:08:53;;;;;;;52.10;19.20;;;;;;;1.46;100.00;99775.66;4951765;23;21791;-73
2023/01/20 11:11:22;;;;;;;53.23;19.77;;;;;;;1.42;100.00;99774.16;4956715;23;20594;-74
2023/01/20 11:13:52;;;;;;;57.43;22.47;;;;;;;1.48;100.00;99784.25;4977809;23;21543;-73
2023/01/20 11:16:23;;;;;;;62.90;22.60;;;;;;;1.52;100.00;99777.84;4954570;23;20338;-73
2023/01/20 11:19:01;;;;;;;51.40;19.23;;;;;;;1.79;100.00;99772.50;4975274;23;20234;-75
2023/01/20 11:21:30;;;;;;;54.67;19.77;;;;;;;1.76;100.00;99777.16;4933741;23;20303;-75
2023/01/20 11:23:58;;;;;;;49.83;19.07;;;;;;;1.84;100.00;99772.19;4966638;23;20211;-76
2023/01/20 11:26:28;;;;;;;51.77;18.27;;;;;;;1.72;100.00;99780.91;4959546;23;20212;-73
2023/01/20 11:29:22;;;;;;;50.13;19.83;;;;;;;1.71;100.00;99780.06;4972373;23;21846;-73